< < Back
Terminal Aerodrome Forecast


Current Version              Previous Versions:   1  2  3  4  5  6  7  8  9  

Terminal Aerodrome Forecast

327
FTUS44 KBMX 221728
TAFANB
TAF
KANB 221728Z 2218/2318 21002KT P6SM SCT050
     FM222000 18004KT P6SM VCTS BKN050CB
     FM230300 VRB03KT P6SM BKN250=



Latest METAR

585
SAUS70 KWBC 231500 RRK
MTRANB
METAR KANB 231453Z AUTO 27004KT 10SM CLR 30/24 A3004 RMK AO2 SLP161
T03000239 53001


USA.gov is the U.S. government's official web portal to all federal, state and local government web resources and services.